sensor_id;sensor_type;location;lat;lon;timestamp;P1;durP1;ratioP1;P2;durP2;ratioP2
72408;SDS011;60402;48.082;11.628;2022-12-10T00:02:25;26.17;;;11.68;;
72408;SDS011;60402;48.082;11.628;2022-12-10T00:04:51;30.23;;;11.10;;
72408;SDS011;60402;48.082;11.628;2022-12-10T00:07:16;28.35;;;11.93;;
72408;SDS011;60402;48.082;11.628;2022-12-10T00:09:41;30.55;;;11.43;;
72408;SDS011;60402;48.082;11.628;2022-12-10T00:12:07;27.08;;;10.90;;
72408;SDS011;60402;48.082;11.628;2022-12-10T00:14:32;27.77;;;11.70;;
72408;SDS011;60402;48.082;11.628;2022-12-10T00:16:57;29.45;;;12.85;;
72408;SDS011;60402;48.082;11.628;2022-12-10T00:19:23;27.25;;;10.77;;
72408;SDS011;60402;48.082;11.628;2022-12-10T00:21:48;32.55;;;11.57;;
72408;SDS011;60402;48.082;11.628;2022-12-10T00:24:14;30.88;;;11.93;;
72408;SDS011;60402;48.082;11.628;2022-12-10T00:26:39;30.33;;;11.90;;
72408;SDS011;60402;48.082;11.628;2022-12-10T00:29:05;31.17;;;12.38;;
72408;SDS011;60402;48.082;11.628;2022-12-10T00:31:35;28.92;;;11.40;;
72408;SDS011;60402;48.082;11.628;2022-12-10T00:34:03;32.25;;;11.63;;
72408;SDS011;60402;48.082;11.628;2022-12-10T00:36:34;29.08;;;12.13;;
72408;SDS011;60402;48.082;11.628;2022-12-10T00:39:02;29.98;;;11.68;;
72408;SDS011;60402;48.082;11.628;2022-12-10T00:41:29;25.58;;;11.38;;
72408;SDS011;60402;48.082;11.628;2022-12-10T00:43:54;29.88;;;11.85;;
72408;SDS011;60402;48.082;11.628;2022-12-10T00:46:22;29.08;;;11.25;;
72408;SDS011;60402;48.082;11.628;2022-12-10T00:48:48;31.08;;;11.35;;
72408;SDS011;60402;48.082;11.628;2022-12-10T00:51:14;31.50;;;11.07;;
72408;SDS011;60402;48.082;11.628;2022-12-10T00:53:44;30.75;;;11.05;;
72408;SDS011;60402;48.082;11.628;2022-12-10T00:56:12;31.83;;;12.32;;
72408;SDS011;60402;48.082;11.628;2022-12-10T00:58:41;31.13;;;11.27;;
72408;SDS011;60402;48.082;11.628;2022-12-10T01:01:08;29.15;;;10.98;;
72408;SDS011;60402;48.082;11.628;2022-12-10T01:03:57;29.80;;;11.55;;
72408;SDS011;60402;48.082;11.628;2022-12-10T01:06:28;31.02;;;11.35;;
72408;SDS011;60402;48.082;11.628;2022-12-10T01:09:19;26.45;;;10.52;;
72408;SDS011;60402;48.082;11.628;2022-12-10T01:11:50;27.17;;;10.73;;
72408;SDS011;60402;48.082;11.628;2022-12-10T01:14:18;34.28;;;12.00;;
72408;SDS011;60402;48.082;11.628;2022-12-10T01:16:45;32.97;;;12.00;;
72408;SDS011;60402;48.082;11.628;2022-12-10T01:19:11;30.40;;;11.63;;
72408;SDS011;60402;48.082;11.628;2022-12-10T01:21:37;30.45;;;12.45;;
72408;SDS011;60402;48.082;11.628;2022-12-10T01:24:02;31.65;;;12.88;;
72408;SDS011;60402;48.082;11.628;2022-12-10T01:26:30;27.30;;;11.80;;
72408;SDS011;60402;48.082;11.628;2022-12-10T01:28:56;25.20;;;10.35;;
72408;SDS011;60402;48.082;11.628;2022-12-10T01:31:29;35.13;;;12.15;;
72408;SDS011;60402;48.082;11.628;2022-12-10T01:33:59;31.30;;;12.43;;
72408;SDS011;60402;48.082;11.628;2022-12-10T01:36:26;30.13;;;12.80;;
72408;SDS011;60402;48.082;11.628;2022-12-10T01:38:53;30.05;;;12.13;;
72408;SDS011;60402;48.082;11.628;2022-12-10T01:41:33;27.60;;;11.68;;
72408;SDS011;60402;48.082;11.628;2022-12-10T01:46:36;30.23;;;11.68;;
72408;SDS011;60402;48.082;11.628;2022-12-10T01:49:07;31.13;;;12.30;;
72408;SDS011;60402;48.082;11.628;2022-12-10T01:51:35;30.13;;;11.52;;
72408;SDS011;60402;48.082;11.628;2022-12-10T01:54:08;30.05;;;11.30;;
72408;SDS011;60402;48.082;11.628;2022-12-10T01:56:41;33.17;;;11.80;;
72408;SDS011;60402;48.082;11.628;2022-12-10T01:59:15;34.88;;;12.73;;
72408;SDS011;60402;48.082;11.628;2022-12-10T02:04:33;37.28;;;12.35;;
72408;SDS011;60402;48.082;11.628;2022-12-10T02:07:00;30.25;;;11.63;;
72408;SDS011;60402;48.082;11.628;2022-12-10T02:09:35;33.72;;;12.15;;
72408;SDS011;60402;48.082;11.628;2022-12-10T02:17:20;32.67;;;11.55;;
72408;SDS011;60402;48.082;11.628;2022-12-10T02:20:04;34.20;;;12.57;;
72408;SDS011;60402;48.082;11.628;2022-12-10T02:22:54;29.48;;;12.55;;
72408;SDS011;60402;48.082;11.628;2022-12-10T02:28:24;37.25;;;12.35;;
72408;SDS011;60402;48.082;11.628;2022-12-10T02:31:15;36.50;;;12.65;;
72408;SDS011;60402;48.082;11.628;2022-12-10T02:33:46;34.92;;;13.00;;
72408;SDS011;60402;48.082;11.628;2022-12-10T02:36:15;35.40;;;12.18;;
72408;SDS011;60402;48.082;11.628;2022-12-10T02:38:43;34.10;;;12.50;;
72408;SDS011;60402;48.082;11.628;2022-12-10T02:41:16;30.02;;;12.57;;
72408;SDS011;60402;48.082;11.628;2022-12-10T02:43:47;34.80;;;13.00;;
72408;SDS011;60402;48.082;11.628;2022-12-10T02:46:16;32.40;;;12.07;;
72408;SDS011;60402;48.082;11.628;2022-12-10T02:48:43;30.77;;;11.48;;
72408;SDS011;60402;48.082;11.628;2022-12-10T02:51:12;39.42;;;13.38;;
72408;SDS011;60402;48.082;11.628;2022-12-10T02:53:42;41.38;;;13.57;;
72408;SDS011;60402;48.082;11.628;2022-12-10T02:56:27;36.33;;;13.02;;
72408;SDS011;60402;48.082;11.628;2022-12-10T02:59:07;31.95;;;10.63;;
72408;SDS011;60402;48.082;11.628;2022-12-10T03:01:59;35.13;;;13.05;;
72408;SDS011;60402;48.082;11.628;2022-12-10T03:07:08;38.88;;;12.90;;
72408;SDS011;60402;48.082;11.628;2022-12-10T03:09:42;35.75;;;11.25;;
72408;SDS011;60402;48.082;11.628;2022-12-10T03:12:16;33.20;;;11.75;;
72408;SDS011;60402;48.082;11.628;2022-12-10T03:15:05;32.55;;;11.43;;
72408;SDS011;60402;48.082;11.628;2022-12-10T03:17:34;28.77;;;10.68;;
72408;SDS011;60402;48.082;11.628;2022-12-10T03:20:02;28.17;;;11.23;;
72408;SDS011;60402;48.082;11.628;2022-12-10T03:22:29;26.85;;;10.80;;
72408;SDS011;60402;48.082;11.628;2022-12-10T03:24:57;32.05;;;12.32;;
72408;SDS011;60402;48.082;11.628;2022-12-10T03:27:24;26.02;;;11.23;;
72408;SDS011;60402;48.082;11.628;2022-12-10T03:29:52;27.88;;;10.75;;
72408;SDS011;60402;48.082;11.628;2022-12-10T03:32:21;32.72;;;11.50;;
72408;SDS011;60402;48.082;11.628;2022-12-10T03:34:50;28.05;;;11.10;;
72408;SDS011;60402;48.082;11.628;2022-12-10T03:37:20;28.23;;;10.68;;
72408;SDS011;60402;48.082;11.628;2022-12-10T03:39:47;29.20;;;10.18;;
72408;SDS011;60402;48.082;11.628;2022-12-10T03:42:16;28.42;;;10.98;;
72408;SDS011;60402;48.082;11.628;2022-12-10T03:44:41;27.17;;;10.35;;
72408;SDS011;60402;48.082;11.628;2022-12-10T03:47:09;27.35;;;11.38;;
72408;SDS011;60402;48.082;11.628;2022-12-10T03:49:38;28.77;;;11.02;;
72408;SDS011;60402;48.082;11.628;2022-12-10T03:52:04;30.42;;;11.48;;
72408;SDS011;60402;48.082;11.628;2022-12-10T03:54:29;29.67;;;11.48;;
72408;SDS011;60402;48.082;11.628;2022-12-10T03:56:58;27.45;;;11.00;;
72408;SDS011;60402;48.082;11.628;2022-12-10T03:59:23;28.60;;;11.48;;
72408;SDS011;60402;48.082;11.628;2022-12-10T04:01:48;34.10;;;12.95;;
72408;SDS011;60402;48.082;11.628;2022-12-10T04:04:14;30.25;;;11.50;;
72408;SDS011;60402;48.082;11.628;2022-12-10T04:06:40;34.55;;;12.75;;
72408;SDS011;60402;48.082;11.628;2022-12-10T04:09:09;32.85;;;13.13;;
72408;SDS011;60402;48.082;11.628;2022-12-10T04:11:36;36.85;;;11.85;;
72408;SDS011;60402;48.082;11.628;2022-12-10T04:14:01;34.90;;;12.63;;
72408;SDS011;60402;48.082;11.628;2022-12-10T04:16:45;29.30;;;11.50;;
72408;SDS011;60402;48.082;11.628;2022-12-10T04:19:11;28.88;;;11.70;;
72408;SDS011;60402;48.082;11.628;2022-12-10T04:21:40;33.38;;;13.38;;
72408;SDS011;60402;48.082;11.628;2022-12-10T04:24:26;31.17;;;12.45;;
72408;SDS011;60402;48.082;11.628;2022-12-10T04:27:16;29.85;;;12.75;;
72408;SDS011;60402;48.082;11.628;2022-12-10T04:29:45;34.75;;;12.38;;
72408;SDS011;60402;48.082;11.628;2022-12-10T04:32:10;31.00;;;12.27;;
72408;SDS011;60402;48.082;11.628;2022-12-10T04:34:36;32.70;;;13.52;;
72408;SDS011;60402;48.082;11.628;2022-12-10T04:37:02;29.30;;;11.07;;
72408;SDS011;60402;48.082;11.628;2022-12-10T04:39:28;33.42;;;13.00;;
72408;SDS011;60402;48.082;11.628;2022-12-10T04:41:53;32.15;;;12.63;;
72408;SDS011;60402;48.082;11.628;2022-12-10T04:44:19;29.02;;;11.50;;
72408;SDS011;60402;48.082;11.628;2022-12-10T04:46:47;25.58;;;10.88;;
72408;SDS011;60402;48.082;11.628;2022-12-10T04:49:13;30.23;;;12.02;;
72408;SDS011;60402;48.082;11.628;2022-12-10T04:51:39;32.08;;;12.88;;
72408;SDS011;60402;48.082;11.628;2022-12-10T04:54:06;28.63;;;10.70;;
72408;SDS011;60402;48.082;11.628;2022-12-10T04:56:35;27.88;;;10.55;;
72408;SDS011;60402;48.082;11.628;2022-12-10T04:59:02;24.65;;;11.38;;
72408;SDS011;60402;48.082;11.628;2022-12-10T05:01:28;29.77;;;11.50;;
72408;SDS011;60402;48.082;11.628;2022-12-10T05:03:54;26.40;;;10.38;;
72408;SDS011;60402;48.082;11.628;2022-12-10T05:06:22;25.48;;;11.27;;
72408;SDS011;60402;48.082;11.628;2022-12-10T05:08:48;27.63;;;11.02;;
72408;SDS011;60402;48.082;11.628;2022-12-10T05:11:17;27.60;;;11.23;;
72408;SDS011;60402;48.082;11.628;2022-12-10T05:13:44;23.00;;;9.68;;
72408;SDS011;60402;48.082;11.628;2022-12-10T05:16:11;29.13;;;11.20;;
72408;SDS011;60402;48.082;11.628;2022-12-10T05:18:38;30.70;;;10.48;;
72408;SDS011;60402;48.082;11.628;2022-12-10T05:21:07;26.65;;;10.50;;
72408;SDS011;60402;48.082;11.628;2022-12-10T05:23:38;25.30;;;10.57;;
72408;SDS011;60402;48.082;11.628;2022-12-10T05:28:30;26.48;;;10.23;;
72408;SDS011;60402;48.082;11.628;2022-12-10T05:30:58;31.65;;;11.07;;
72408;SDS011;60402;48.082;11.628;2022-12-10T05:33:24;26.92;;;10.30;;
72408;SDS011;60402;48.082;11.628;2022-12-10T05:36:00;26.02;;;9.98;;
72408;SDS011;60402;48.082;11.628;2022-12-10T05:38:27;27.33;;;10.57;;
72408;SDS011;60402;48.082;11.628;2022-12-10T05:40:54;26.30;;;9.40;;
72408;SDS011;60402;48.082;11.628;2022-12-10T05:43:19;27.58;;;11.32;;
72408;SDS011;60402;48.082;11.628;2022-12-10T05:45:45;33.55;;;10.95;;
72408;SDS011;60402;48.082;11.628;2022-12-10T05:48:12;30.73;;;11.18;;
72408;SDS011;60402;48.082;11.628;2022-12-10T05:50:40;31.23;;;10.82;;
72408;SDS011;60402;48.082;11.628;2022-12-10T05:53:06;33.53;;;10.38;;
72408;SDS011;60402;48.082;11.628;2022-12-10T05:55:32;35.40;;;11.68;;
72408;SDS011;60402;48.082;11.628;2022-12-10T05:57:59;39.95;;;13.27;;
72408;SDS011;60402;48.082;11.628;2022-12-10T06:00:25;34.08;;;11.57;;
72408;SDS011;60402;48.082;11.628;2022-12-10T06:02:55;36.83;;;12.20;;
72408;SDS011;60402;48.082;11.628;2022-12-10T06:05:20;33.53;;;11.45;;
72408;SDS011;60402;48.082;11.628;2022-12-10T06:07:46;33.50;;;11.63;;
72408;SDS011;60402;48.082;11.628;2022-12-10T06:10:11;32.03;;;11.13;;
72408;SDS011;60402;48.082;11.628;2022-12-10T06:12:37;37.28;;;12.95;;
72408;SDS011;60402;48.082;11.628;2022-12-10T06:15:03;40.53;;;13.27;;
72408;SDS011;60402;48.082;11.628;2022-12-10T06:17:29;35.53;;;11.52;;
72408;SDS011;60402;48.082;11.628;2022-12-10T06:19:55;35.70;;;13.77;;
72408;SDS011;60402;48.082;11.628;2022-12-10T06:22:20;36.97;;;12.93;;
72408;SDS011;60402;48.082;11.628;2022-12-10T06:24:45;33.75;;;11.65;;
72408;SDS011;60402;48.082;11.628;2022-12-10T06:27:11;32.75;;;11.75;;
72408;SDS011;60402;48.082;11.628;2022-12-10T06:29:36;36.53;;;12.75;;
72408;SDS011;60402;48.082;11.628;2022-12-10T06:32:01;32.90;;;12.57;;
72408;SDS011;60402;48.082;11.628;2022-12-10T06:34:27;34.92;;;12.68;;
72408;SDS011;60402;48.082;11.628;2022-12-10T06:36:52;33.05;;;12.20;;
72408;SDS011;60402;48.082;11.628;2022-12-10T06:39:17;40.75;;;14.25;;
72408;SDS011;60402;48.082;11.628;2022-12-10T06:41:43;38.60;;;12.88;;
72408;SDS011;60402;48.082;11.628;2022-12-10T06:44:10;35.03;;;13.82;;
72408;SDS011;60402;48.082;11.628;2022-12-10T06:46:35;34.75;;;12.77;;
72408;SDS011;60402;48.082;11.628;2022-12-10T06:49:02;39.35;;;14.75;;
72408;SDS011;60402;48.082;11.628;2022-12-10T06:51:27;37.25;;;12.65;;
72408;SDS011;60402;48.082;11.628;2022-12-10T06:53:53;32.97;;;13.45;;
72408;SDS011;60402;48.082;11.628;2022-12-10T06:56:18;39.90;;;13.80;;
72408;SDS011;60402;48.082;11.628;2022-12-10T06:58:44;38.30;;;14.30;;
72408;SDS011;60402;48.082;11.628;2022-12-10T07:01:12;32.45;;;12.75;;
72408;SDS011;60402;48.082;11.628;2022-12-10T07:03:39;33.00;;;13.00;;
72408;SDS011;60402;48.082;11.628;2022-12-10T07:06:05;34.63;;;12.93;;
72408;SDS011;60402;48.082;11.628;2022-12-10T07:08:32;34.05;;;13.27;;
72408;SDS011;60402;48.082;11.628;2022-12-10T07:10:57;29.27;;;12.82;;
72408;SDS011;60402;48.082;11.628;2022-12-10T07:13:27;39.70;;;13.93;;
72408;SDS011;60402;48.082;11.628;2022-12-10T07:15:53;33.72;;;12.50;;
72408;SDS011;60402;48.082;11.628;2022-12-10T07:18:18;31.58;;;11.57;;
72408;SDS011;60402;48.082;11.628;2022-12-10T07:20:43;35.95;;;12.55;;
72408;SDS011;60402;48.082;11.628;2022-12-10T07:23:09;37.83;;;13.77;;
72408;SDS011;60402;48.082;11.628;2022-12-10T07:25:35;34.47;;;13.00;;
72408;SDS011;60402;48.082;11.628;2022-12-10T07:28:00;34.90;;;13.25;;
72408;SDS011;60402;48.082;11.628;2022-12-10T07:30:26;36.08;;;13.27;;
72408;SDS011;60402;48.082;11.628;2022-12-10T07:32:51;33.42;;;12.88;;
72408;SDS011;60402;48.082;11.628;2022-12-10T07:35:16;33.58;;;12.60;;
72408;SDS011;60402;48.082;11.628;2022-12-10T07:37:42;31.55;;;12.15;;
72408;SDS011;60402;48.082;11.628;2022-12-10T07:40:07;37.00;;;13.23;;
72408;SDS011;60402;48.082;11.628;2022-12-10T07:42:33;34.97;;;13.57;;
72408;SDS011;60402;48.082;11.628;2022-12-10T07:44:59;32.05;;;13.43;;
72408;SDS011;60402;48.082;11.628;2022-12-10T07:47:25;35.83;;;13.55;;
72408;SDS011;60402;48.082;11.628;2022-12-10T07:49:52;29.90;;;12.18;;
72408;SDS011;60402;48.082;11.628;2022-12-10T07:52:18;33.38;;;12.40;;
72408;SDS011;60402;48.082;11.628;2022-12-10T07:54:43;33.65;;;13.40;;
72408;SDS011;60402;48.082;11.628;2022-12-10T07:57:15;31.40;;;11.88;;
72408;SDS011;60402;48.082;11.628;2022-12-10T07:59:40;28.08;;;12.25;;
72408;SDS011;60402;48.082;11.628;2022-12-10T08:02:08;27.52;;;9.95;;
72408;SDS011;60402;48.082;11.628;2022-12-10T08:04:34;30.27;;;12.02;;
72408;SDS011;60402;48.082;11.628;2022-12-10T08:06:59;28.38;;;11.60;;
72408;SDS011;60402;48.082;11.628;2022-12-10T08:09:27;25.55;;;11.13;;
72408;SDS011;60402;48.082;11.628;2022-12-10T08:11:52;26.85;;;10.55;;
72408;SDS011;60402;48.082;11.628;2022-12-10T08:14:18;27.77;;;10.48;;
72408;SDS011;60402;48.082;11.628;2022-12-10T08:16:43;24.73;;;11.27;;
72408;SDS011;60402;48.082;11.628;2022-12-10T08:19:08;21.80;;;9.45;;
72408;SDS011;60402;48.082;11.628;2022-12-10T08:21:42;23.08;;;8.95;;
72408;SDS011;60402;48.082;11.628;2022-12-10T08:24:07;27.17;;;9.85;;
72408;SDS011;60402;48.082;11.628;2022-12-10T08:26:33;23.65;;;10.18;;
72408;SDS011;60402;48.082;11.628;2022-12-10T08:28:58;25.83;;;10.63;;
72408;SDS011;60402;48.082;11.628;2022-12-10T08:31:24;23.70;;;9.90;;
72408;SDS011;60402;48.082;11.628;2022-12-10T08:33:52;22.60;;;9.40;;
72408;SDS011;60402;48.082;11.628;2022-12-10T08:36:18;24.15;;;9.57;;
72408;SDS011;60402;48.082;11.628;2022-12-10T08:38:44;24.23;;;10.43;;
72408;SDS011;60402;48.082;11.628;2022-12-10T08:41:14;23.52;;;9.27;;
72408;SDS011;60402;48.082;11.628;2022-12-10T08:43:41;26.75;;;9.63;;
72408;SDS011;60402;48.082;11.628;2022-12-10T08:46:07;22.63;;;9.77;;
72408;SDS011;60402;48.082;11.628;2022-12-10T08:48:35;25.50;;;9.00;;
72408;SDS011;60402;48.082;11.628;2022-12-10T08:51:01;23.67;;;9.70;;
72408;SDS011;60402;48.082;11.628;2022-12-10T08:56:37;26.30;;;10.43;;
72408;SDS011;60402;48.082;11.628;2022-12-10T08:59:04;25.88;;;10.57;;
72408;SDS011;60402;48.082;11.628;2022-12-10T09:01:30;24.48;;;9.38;;
72408;SDS011;60402;48.082;11.628;2022-12-10T09:03:55;22.70;;;10.30;;
72408;SDS011;60402;48.082;11.628;2022-12-10T09:06:21;22.48;;;8.68;;
72408;SDS011;60402;48.082;11.628;2022-12-10T09:08:49;23.20;;;9.57;;
72408;SDS011;60402;48.082;11.628;2022-12-10T09:11:16;25.13;;;10.40;;
72408;SDS011;60402;48.082;11.628;2022-12-10T09:13:44;23.23;;;10.82;;
72408;SDS011;60402;48.082;11.628;2022-12-10T09:16:09;24.27;;;10.80;;
72408;SDS011;60402;48.082;11.628;2022-12-10T09:18:35;23.33;;;9.23;;
72408;SDS011;60402;48.082;11.628;2022-12-10T09:21:04;23.48;;;10.15;;
72408;SDS011;60402;48.082;11.628;2022-12-10T09:23:30;28.33;;;11.10;;
72408;SDS011;60402;48.082;11.628;2022-12-10T09:25:56;28.33;;;11.23;;
72408;SDS011;60402;48.082;11.628;2022-12-10T09:28:21;26.60;;;10.63;;
72408;SDS011;60402;48.082;11.628;2022-12-10T09:30:54;25.73;;;10.02;;
72408;SDS011;60402;48.082;11.628;2022-12-10T09:33:21;29.65;;;12.00;;
72408;SDS011;60402;48.082;11.628;2022-12-10T09:35:47;30.75;;;11.23;;
72408;SDS011;60402;48.082;11.628;2022-12-10T09:38:12;30.92;;;11.98;;
72408;SDS011;60402;48.082;11.628;2022-12-10T09:40:40;30.08;;;11.35;;
72408;SDS011;60402;48.082;11.628;2022-12-10T09:43:22;30.40;;;12.68;;
72408;SDS011;60402;48.082;11.628;2022-12-10T09:48:47;27.35;;;10.40;;
72408;SDS011;60402;48.082;11.628;2022-12-10T09:51:21;32.30;;;12.63;;
72408;SDS011;60402;48.082;11.628;2022-12-10T09:53:49;29.73;;;11.73;;
72408;SDS011;60402;48.082;11.628;2022-12-10T09:56:23;30.60;;;12.50;;
72408;SDS011;60402;48.082;11.628;2022-12-10T09:58:53;31.00;;;12.00;;
72408;SDS011;60402;48.082;11.628;2022-12-10T10:01:19;31.92;;;11.15;;
72408;SDS011;60402;48.082;11.628;2022-12-10T10:03:50;28.48;;;11.25;;
72408;SDS011;60402;48.082;11.628;2022-12-10T10:06:16;33.35;;;12.00;;
72408;SDS011;60402;48.082;11.628;2022-12-10T10:08:55;32.05;;;12.40;;
72408;SDS011;60402;48.082;11.628;2022-12-10T10:11:24;34.53;;;13.00;;
72408;SDS011;60402;48.082;11.628;2022-12-10T10:14:13;32.63;;;12.48;;
72408;SDS011;60402;48.082;11.628;2022-12-10T10:16:58;33.28;;;11.93;;
72408;SDS011;60402;48.082;11.628;2022-12-10T10:19:37;35.13;;;12.30;;
72408;SDS011;60402;48.082;11.628;2022-12-10T10:22:04;32.70;;;11.10;;
72408;SDS011;60402;48.082;11.628;2022-12-10T10:24:34;33.30;;;12.48;;
72408;SDS011;60402;48.082;11.628;2022-12-10T10:27:11;34.42;;;13.20;;
72408;SDS011;60402;48.082;11.628;2022-12-10T10:29:39;33.10;;;11.13;;
72408;SDS011;60402;48.082;11.628;2022-12-10T10:34:51;28.50;;;10.77;;
72408;SDS011;60402;48.082;11.628;2022-12-10T10:37:19;28.25;;;9.52;;
72408;SDS011;60402;48.082;11.628;2022-12-10T10:39:49;29.63;;;11.60;;
72408;SDS011;60402;48.082;11.628;2022-12-10T10:42:22;29.63;;;12.15;;
72408;SDS011;60402;48.082;11.628;2022-12-10T10:44:51;24.80;;;10.98;;
72408;SDS011;60402;48.082;11.628;2022-12-10T10:47:25;28.27;;;10.98;;
72408;SDS011;60402;48.082;11.628;2022-12-10T10:49:55;29.70;;;13.30;;
72408;SDS011;60402;48.082;11.628;2022-12-10T10:52:20;36.22;;;12.60;;
72408;SDS011;60402;48.082;11.628;2022-12-10T10:54:46;28.95;;;10.73;;
72408;SDS011;60402;48.082;11.628;2022-12-10T10:59:54;28.27;;;11.20;;
72408;SDS011;60402;48.082;11.628;2022-12-10T11:02:35;37.33;;;11.85;;
72408;SDS011;60402;48.082;11.628;2022-12-10T11:05:24;31.48;;;12.45;;
72408;SDS011;60402;48.082;11.628;2022-12-10T11:10:25;23.83;;;8.90;;
72408;SDS011;60402;48.082;11.628;2022-12-10T11:12:58;26.38;;;10.18;;
72408;SDS011;60402;48.082;11.628;2022-12-10T11:15:36;28.17;;;11.75;;
72408;SDS011;60402;48.082;11.628;2022-12-10T11:18:20;28.67;;;10.75;;
72408;SDS011;60402;48.082;11.628;2022-12-10T11:21:06;25.67;;;9.43;;
72408;SDS011;60402;48.082;11.628;2022-12-10T11:23:42;29.75;;;11.32;;
72408;SDS011;60402;48.082;11.628;2022-12-10T11:45:30;32.13;;;11.30;;
72408;SDS011;60402;48.082;11.628;2022-12-10T11:48:34;28.42;;;11.57;;
72408;SDS011;60402;48.082;11.628;2022-12-10T11:53:55;28.55;;;10.70;;
72408;SDS011;60402;48.082;11.628;2022-12-10T11:56:39;33.05;;;11.70;;
72408;SDS011;60402;48.082;11.628;2022-12-10T12:17:54;27.02;;;10.23;;
72408;SDS011;60402;48.082;11.628;2022-12-10T12:20:25;30.60;;;11.38;;
72408;SDS011;60402;48.082;11.628;2022-12-10T12:23:19;26.48;;;10.15;;
72408;SDS011;60402;48.082;11.628;2022-12-10T12:25:53;24.63;;;10.02;;
72408;SDS011;60402;48.082;11.628;2022-12-10T12:28:26;24.05;;;10.10;;
72408;SDS011;60402;48.082;11.628;2022-12-10T12:31:02;26.40;;;9.88;;
72408;SDS011;60402;48.082;11.628;2022-12-10T12:33:39;31.27;;;10.55;;
72408;SDS011;60402;48.082;11.628;2022-12-10T12:36:19;32.42;;;10.98;;
72408;SDS011;60402;48.082;11.628;2022-12-10T12:38:55;37.00;;;11.65;;
72408;SDS011;60402;48.082;11.628;2022-12-10T12:42:12;30.58;;;11.90;;
72408;SDS011;60402;48.082;11.628;2022-12-10T12:47:51;30.55;;;10.98;;
72408;SDS011;60402;48.082;11.628;2022-12-10T12:50:20;27.02;;;10.35;;
72408;SDS011;60402;48.082;11.628;2022-12-10T12:52:54;32.50;;;12.27;;
72408;SDS011;60402;48.082;11.628;2022-12-10T12:55:25;33.45;;;11.85;;
72408;SDS011;60402;48.082;11.628;2022-12-10T13:01:28;25.45;;;10.25;;
72408;SDS011;60402;48.082;11.628;2022-12-10T13:04:08;30.23;;;10.40;;
72408;SDS011;60402;48.082;11.628;2022-12-10T13:06:36;27.67;;;10.38;;
72408;SDS011;60402;48.082;11.628;2022-12-10T13:12:16;31.23;;;11.07;;
72408;SDS011;60402;48.082;11.628;2022-12-10T13:15:47;25.67;;;9.45;;
72408;SDS011;60402;48.082;11.628;2022-12-10T13:18:17;25.65;;;10.10;;
72408;SDS011;60402;48.082;11.628;2022-12-10T13:27:19;30.67;;;11.13;;
72408;SDS011;60402;48.082;11.628;2022-12-10T13:30:04;26.75;;;10.07;;
72408;SDS011;60402;48.082;11.628;2022-12-10T13:43:58;30.83;;;10.15;;
72408;SDS011;60402;48.082;11.628;2022-12-10T13:46:28;33.28;;;11.55;;
72408;SDS011;60402;48.082;11.628;2022-12-10T13:49:00;24.60;;;9.48;;
72408;SDS011;60402;48.082;11.628;2022-12-10T13:54:06;28.17;;;10.80;;
72408;SDS011;60402;48.082;11.628;2022-12-10T13:56:41;31.42;;;11.13;;
72408;SDS011;60402;48.082;11.628;2022-12-10T13:59:43;31.98;;;11.60;;
72408;SDS011;60402;48.082;11.628;2022-12-10T14:05:10;27.67;;;10.27;;
72408;SDS011;60402;48.082;11.628;2022-12-10T14:07:52;26.63;;;10.20;;
72408;SDS011;60402;48.082;11.628;2022-12-10T14:10:21;34.60;;;11.88;;
72408;SDS011;60402;48.082;11.628;2022-12-10T14:12:58;27.42;;;11.02;;
72408;SDS011;60402;48.082;11.628;2022-12-10T14:15:28;29.73;;;10.88;;
72408;SDS011;60402;48.082;11.628;2022-12-10T14:18:03;28.60;;;12.05;;
72408;SDS011;60402;48.082;11.628;2022-12-10T14:20:35;27.67;;;11.10;;
72408;SDS011;60402;48.082;11.628;2022-12-10T14:23:05;32.10;;;12.25;;
72408;SDS011;60402;48.082;11.628;2022-12-10T14:26:09;31.20;;;11.43;;
72408;SDS011;60402;48.082;11.628;2022-12-10T14:28:39;25.60;;;10.60;;
72408;SDS011;60402;48.082;11.628;2022-12-10T14:31:10;30.33;;;11.70;;
72408;SDS011;60402;48.082;11.628;2022-12-10T14:33:41;29.40;;;10.52;;
72408;SDS011;60402;48.082;11.628;2022-12-10T14:36:13;30.65;;;12.57;;
72408;SDS011;60402;48.082;11.628;2022-12-10T14:38:41;29.67;;;11.65;;
72408;SDS011;60402;48.082;11.628;2022-12-10T14:41:06;30.48;;;11.43;;
72408;SDS011;60402;48.082;11.628;2022-12-10T14:43:35;27.45;;;10.45;;
72408;SDS011;60402;48.082;11.628;2022-12-10T14:46:03;28.95;;;10.32;;
72408;SDS011;60402;48.082;11.628;2022-12-10T14:48:29;28.25;;;10.38;;
72408;SDS011;60402;48.082;11.628;2022-12-10T14:51:04;31.00;;;10.57;;
72408;SDS011;60402;48.082;11.628;2022-12-10T14:53:36;29.02;;;11.45;;
72408;SDS011;60402;48.082;11.628;2022-12-10T14:56:02;26.48;;;10.57;;
72408;SDS011;60402;48.082;11.628;2022-12-10T14:58:46;28.90;;;11.85;;
72408;SDS011;60402;48.082;11.628;2022-12-10T15:01:37;31.25;;;10.73;;
72408;SDS011;60402;48.082;11.628;2022-12-10T15:04:06;25.70;;;9.85;;
72408;SDS011;60402;48.082;11.628;2022-12-10T15:06:38;25.73;;;10.10;;
72408;SDS011;60402;48.082;11.628;2022-12-10T15:09:04;24.85;;;10.02;;
72408;SDS011;60402;48.082;11.628;2022-12-10T15:11:34;28.80;;;9.75;;
72408;SDS011;60402;48.082;11.628;2022-12-10T15:13:59;29.35;;;10.52;;
72408;SDS011;60402;48.082;11.628;2022-12-10T15:16:29;28.95;;;10.85;;
72408;SDS011;60402;48.082;11.628;2022-12-10T15:19:06;26.17;;;9.80;;
72408;SDS011;60402;48.082;11.628;2022-12-10T15:21:32;22.60;;;9.32;;
72408;SDS011;60402;48.082;11.628;2022-12-10T15:24:13;28.45;;;10.57;;
72408;SDS011;60402;48.082;11.628;2022-12-10T15:26:41;23.45;;;10.10;;
72408;SDS011;60402;48.082;11.628;2022-12-10T15:29:31;27.17;;;9.52;;
72408;SDS011;60402;48.082;11.628;2022-12-10T15:32:08;26.92;;;10.93;;
72408;SDS011;60402;48.082;11.628;2022-12-10T15:34:45;26.25;;;11.75;;
72408;SDS011;60402;48.082;11.628;2022-12-10T15:37:24;26.15;;;10.73;;
72408;SDS011;60402;48.082;11.628;2022-12-10T15:39:56;33.45;;;13.20;;
72408;SDS011;60402;48.082;11.628;2022-12-10T15:42:27;29.67;;;11.90;;
72408;SDS011;60402;48.082;11.628;2022-12-10T15:45:01;30.67;;;12.00;;
72408;SDS011;60402;48.082;11.628;2022-12-10T15:47:43;27.67;;;11.50;;
72408;SDS011;60402;48.082;11.628;2022-12-10T15:50:09;28.83;;;10.98;;
72408;SDS011;60402;48.082;11.628;2022-12-10T15:52:35;23.48;;;9.93;;
72408;SDS011;60402;48.082;11.628;2022-12-10T15:55:00;31.08;;;12.88;;
72408;SDS011;60402;48.082;11.628;2022-12-10T15:57:28;30.58;;;12.73;;
72408;SDS011;60402;48.082;11.628;2022-12-10T15:59:58;33.72;;;12.38;;
72408;SDS011;60402;48.082;11.628;2022-12-10T16:02:38;29.35;;;11.60;;
72408;SDS011;60402;48.082;11.628;2022-12-10T16:05:11;29.13;;;11.77;;
72408;SDS011;60402;48.082;11.628;2022-12-10T16:07:46;28.20;;;11.82;;
72408;SDS011;60402;48.082;11.628;2022-12-10T16:10:13;30.27;;;12.10;;
72408;SDS011;60402;48.082;11.628;2022-12-10T16:12:40;27.02;;;10.73;;
72408;SDS011;60402;48.082;11.628;2022-12-10T16:15:07;28.90;;;11.15;;
72408;SDS011;60402;48.082;11.628;2022-12-10T16:17:37;28.05;;;11.65;;